createdAt,value
2023-04-27T00:00:57.499Z,5.50
2023-04-27T00:04:21.451Z,5.30
2023-04-27T00:07:45.252Z,5.90
2023-04-27T00:11:10.716Z,5.27
2023-04-27T00:14:35.346Z,5.40
2023-04-27T00:17:59.332Z,5.40
2023-04-27T00:21:23.324Z,5.40
2023-04-27T00:24:47.402Z,5.77
2023-04-27T00:28:12.708Z,5.77
2023-04-27T00:31:36.207Z,5.80
2023-04-27T00:35:00.314Z,6.20
2023-04-27T00:38:24.235Z,6.20
2023-04-27T00:41:48.313Z,5.50
2023-04-27T00:45:14.340Z,5.47
2023-04-27T00:48:38.125Z,6.80
2023-04-27T00:52:02.553Z,6.17
2023-04-27T00:55:26.285Z,5.10
2023-04-27T00:58:50.561Z,5.33
2023-04-27T01:02:18.671Z,5.93
2023-04-27T01:05:43.172Z,5.53
2023-04-27T01:09:08.033Z,5.17
2023-04-27T01:12:32.285Z,5.30
2023-04-27T01:15:55.819Z,5.07
2023-04-27T01:19:22.766Z,4.07
2023-04-27T01:22:47.337Z,5.33
2023-04-27T01:26:16.401Z,5.30
2023-04-27T01:29:40.175Z,4.73
2023-04-27T01:33:06.008Z,6.03
2023-04-27T01:36:31.762Z,5.00
2023-04-27T01:39:55.436Z,5.40
2023-04-27T01:43:20.498Z,5.20
2023-04-27T01:46:44.438Z,4.63
2023-04-27T01:50:08.737Z,4.80
2023-04-27T01:53:32.386Z,5.20
2023-04-27T01:56:58.582Z,5.43
2023-04-27T02:00:23.891Z,4.73
2023-04-27T02:03:50.548Z,5.20
2023-04-27T02:07:14.174Z,5.20
2023-04-27T02:10:38.623Z,4.97
2023-04-27T02:14:02.540Z,5.67
2023-04-27T02:17:31.637Z,4.87
2023-04-27T02:20:55.484Z,5.10
2023-04-27T02:24:19.500Z,6.03
2023-04-27T02:27:43.541Z,5.57
2023-04-27T02:31:08.718Z,4.93
2023-04-27T02:34:34.784Z,4.47
2023-04-27T02:37:58.451Z,4.97
2023-04-27T02:41:22.473Z,5.73
2023-04-27T02:44:47.448Z,4.57
2023-04-27T02:48:11.439Z,5.50
2023-04-27T02:51:36.351Z,4.90
2023-04-27T02:54:59.985Z,4.70
2023-04-27T02:58:24.409Z,5.20
2023-04-27T03:01:48.499Z,5.60
2023-04-27T03:05:12.831Z,4.30
2023-04-27T03:08:37.856Z,5.10
2023-04-27T03:12:02.810Z,9.80
2023-04-27T03:15:26.546Z,5.03
2023-04-27T03:18:50.449Z,5.47
2023-04-27T03:22:14.495Z,5.43
2023-04-27T03:25:40.725Z,5.40
2023-04-27T03:29:05.065Z,5.67
2023-04-27T03:32:29.601Z,5.47
2023-04-27T03:35:57.654Z,4.70
2023-04-27T03:39:21.473Z,7.83
2023-04-27T03:42:46.868Z,4.80
2023-04-27T03:46:11.691Z,4.83
2023-04-27T03:49:35.454Z,5.27
2023-04-27T03:52:59.103Z,5.87
2023-04-27T03:56:23.532Z,5.97
2023-04-27T03:59:49.437Z,5.23
2023-04-27T04:03:13.684Z,4.23
2023-04-27T04:06:37.561Z,5.70
2023-04-27T04:10:01.391Z,5.57
2023-04-27T04:13:25.623Z,7.13
2023-04-27T04:16:50.869Z,5.63
2023-04-27T04:20:14.496Z,4.73
2023-04-27T04:23:38.594Z,5.27
2023-04-27T04:27:02.788Z,5.47
2023-04-27T04:30:26.339Z,5.47
2023-04-27T04:33:51.949Z,5.17
2023-04-27T04:37:16.628Z,6.10
2023-04-27T04:40:44.460Z,7.47
2023-04-27T04:44:09.601Z,7.73
2023-04-27T04:47:34.228Z,8.53
2023-04-27T04:50:59.907Z,7.33
2023-04-27T04:54:23.645Z,7.60
2023-04-27T04:57:47.760Z,8.10
2023-04-27T05:01:11.749Z,8.20
2023-04-27T05:04:35.489Z,7.07
2023-04-27T05:08:00.950Z,7.50
2023-04-27T05:11:24.721Z,8.30
2023-04-27T05:14:48.808Z,7.43
2023-04-27T05:18:12.485Z,6.50
2023-04-27T05:21:36.704Z,6.80
2023-04-27T05:25:02.073Z,6.27
2023-04-27T05:28:27.373Z,7.10
2023-04-27T05:31:52.649Z,5.30
2023-04-27T05:35:16.327Z,4.77
2023-04-27T05:38:40.639Z,5.80
2023-04-27T05:42:19.069Z,6.37
2023-04-27T05:45:44.615Z,5.63
2023-04-27T05:49:08.489Z,4.27
2023-04-27T05:52:32.135Z,4.63
2023-04-27T05:55:59.200Z,4.10
2023-04-27T05:59:25.132Z,4.33
2023-04-27T06:02:50.054Z,4.60
2023-04-27T06:06:14.836Z,4.30
2023-04-27T06:09:41.435Z,3.80
2023-04-27T06:13:05.802Z,4.40
2023-04-27T06:16:31.336Z,4.07
2023-04-27T06:19:55.962Z,4.47
2023-04-27T06:23:19.855Z,3.27
2023-04-27T06:26:44.221Z,3.60
2023-04-27T06:30:09.092Z,2.93
2023-04-27T06:33:34.261Z,3.53
2023-04-27T06:36:57.829Z,3.97
2023-04-27T06:40:21.694Z,2.53
2023-04-27T06:43:45.757Z,4.33
2023-04-27T06:47:09.397Z,3.63
2023-04-27T06:50:34.419Z,2.83
2023-04-27T06:53:58.151Z,2.50
2023-04-27T06:57:21.924Z,2.90
2023-04-27T07:00:46.066Z,2.90
2023-04-27T07:04:09.684Z,2.80
2023-04-27T07:07:36.929Z,2.77
2023-04-27T07:11:00.948Z,2.60
2023-04-27T07:14:24.655Z,2.93
2023-04-27T07:17:48.729Z,2.70
2023-04-27T07:21:12.843Z,3.20
2023-04-27T07:24:38.396Z,3.00
2023-04-27T07:28:02.087Z,2.70
2023-04-27T07:31:25.945Z,2.93
2023-04-27T07:34:54.061Z,3.80
2023-04-27T07:38:18.429Z,2.10
2023-04-27T07:41:44.184Z,2.50
2023-04-27T07:45:09.578Z,2.73
2023-04-27T07:48:33.196Z,3.07
2023-04-27T07:51:57.391Z,4.27
2023-04-27T07:55:23.459Z,3.27
2023-04-27T07:58:48.412Z,2.00
2023-04-27T08:02:19.667Z,2.73
2023-04-27T08:05:45.224Z,2.27
2023-04-27T08:09:10.489Z,2.10
2023-04-27T08:12:35.289Z,2.57
2023-04-27T08:16:00.255Z,3.27
2023-04-27T08:19:23.864Z,3.17
2023-04-27T08:22:47.790Z,2.57
2023-04-27T08:26:15.561Z,3.20
2023-04-27T08:29:39.253Z,3.13
2023-04-27T08:33:04.422Z,4.20
2023-04-27T08:36:28.983Z,2.80
2023-04-27T08:39:52.562Z,3.50
2023-04-27T08:43:16.945Z,4.93
2023-04-27T08:46:40.866Z,3.03
2023-04-27T08:50:07.244Z,3.27
2023-04-27T08:53:31.919Z,3.73
2023-04-27T08:56:55.892Z,3.17
2023-04-27T09:00:21.039Z,3.10
2023-04-27T09:03:46.838Z,3.00
2023-04-27T09:07:17.178Z,3.10
2023-04-27T09:10:48.877Z,3.50
2023-04-27T09:14:20.271Z,2.80
2023-04-27T09:17:46.188Z,3.00
2023-04-27T09:21:09.951Z,4.00
2023-04-27T09:24:35.691Z,3.20
2023-04-27T09:28:00.839Z,3.50
2023-04-27T09:31:32.375Z,3.30
2023-04-27T09:34:56.097Z,3.00
2023-04-27T09:38:20.758Z,2.87
2023-04-27T09:41:46.474Z,3.30
2023-04-27T09:45:11.453Z,3.20
2023-04-27T09:48:35.037Z,2.80
2023-04-27T09:52:00.865Z,3.80
2023-04-27T09:55:28.376Z,4.47
2023-04-27T09:59:21.546Z,3.23
2023-04-27T10:03:08.384Z,3.00
2023-04-27T10:06:57.819Z,3.60
2023-04-27T10:10:21.874Z,4.00
2023-04-27T10:13:54.379Z,4.10
2023-04-27T10:17:20.902Z,4.00
2023-04-27T10:20:45.329Z,3.77
2023-04-27T10:24:09.709Z,3.87
2023-04-27T10:27:41.154Z,4.17
2023-04-27T10:31:11.897Z,3.70
2023-04-27T10:34:37.814Z,3.83
2023-04-27T10:38:08.095Z,4.50
2023-04-27T10:41:36.328Z,4.90
2023-04-27T10:45:00.153Z,3.10
2023-04-27T10:48:23.747Z,4.00
2023-04-27T10:51:49.738Z,3.57
2023-04-27T10:55:17.924Z,4.00
2023-04-27T10:58:48.782Z,3.43
2023-04-27T11:02:13.192Z,5.10
2023-04-27T11:05:38.127Z,5.00
2023-04-27T11:09:06.403Z,6.63
2023-04-27T11:12:30.200Z,5.57
2023-04-27T11:15:55.621Z,3.53
2023-04-27T11:19:19.443Z,4.27
2023-04-27T11:22:47.059Z,4.50
2023-04-27T11:26:12.822Z,3.70
2023-04-27T11:29:40.062Z,3.30
2023-04-27T11:33:10.003Z,4.03
2023-04-27T11:36:33.854Z,3.17
2023-04-27T11:40:01.831Z,3.80
2023-04-27T11:43:28.534Z,3.07
2023-04-27T11:46:53.214Z,3.90
2023-04-27T11:50:16.936Z,4.77
2023-04-27T11:53:42.471Z,3.80
2023-04-27T11:57:07.109Z,4.27
2023-04-27T12:00:32.152Z,3.90
2023-04-27T12:03:55.909Z,4.30
2023-04-27T12:07:19.775Z,3.70
2023-04-27T12:10:43.297Z,4.87
2023-04-27T12:14:07.155Z,4.40
2023-04-27T12:17:32.754Z,4.33
2023-04-27T12:20:56.413Z,4.37
2023-04-27T12:24:19.969Z,4.37
2023-04-27T12:27:43.811Z,4.37
2023-04-27T12:31:08.326Z,4.13
2023-04-27T12:34:33.837Z,4.30
2023-04-27T12:37:57.463Z,3.90
2023-04-27T12:41:21.022Z,4.30
2023-04-27T12:44:44.648Z,4.47
2023-04-27T12:48:08.928Z,5.27
2023-04-27T12:51:34.505Z,3.60
2023-04-27T12:54:59.247Z,4.10
2023-04-27T12:58:22.924Z,5.13
2023-04-27T13:01:46.594Z,5.00
2023-04-27T13:05:12.115Z,4.90
2023-04-27T13:08:37.986Z,4.80
2023-04-27T13:12:01.874Z,4.53
2023-04-27T13:15:25.927Z,4.13
2023-04-27T13:18:52.141Z,5.10
2023-04-27T13:22:15.674Z,5.00
2023-04-27T13:25:41.009Z,5.00
2023-04-27T13:29:04.920Z,3.80
2023-04-27T13:32:28.598Z,4.40
2023-04-27T13:35:52.503Z,4.93
2023-04-27T13:39:16.900Z,4.10
2023-04-27T13:42:43.113Z,4.30
2023-04-27T13:46:07.516Z,5.00
2023-04-27T13:49:31.458Z,5.13
2023-04-27T13:52:55.834Z,3.47
2023-04-27T13:56:21.971Z,4.87
2023-04-27T13:59:47.027Z,3.87
2023-04-27T14:03:10.907Z,5.40
2023-04-27T14:06:34.756Z,4.50
2023-04-27T14:09:58.485Z,3.83
2023-04-27T14:13:22.132Z,4.40
2023-04-27T14:16:47.294Z,4.00
2023-04-27T14:20:11.054Z,4.50
2023-04-27T14:23:35.036Z,5.33
2023-04-27T14:26:58.666Z,3.93
2023-04-27T14:30:22.777Z,5.33
2023-04-27T14:33:47.987Z,4.50
2023-04-27T14:37:11.661Z,4.17
2023-04-27T14:40:35.337Z,4.33
2023-04-27T14:43:59.361Z,3.90
2023-04-27T14:47:22.996Z,5.37
2023-04-27T14:50:48.044Z,4.60
2023-04-27T14:54:13.198Z,4.80
2023-04-27T14:57:38.510Z,5.70
2023-04-27T15:01:04.661Z,5.07
2023-04-27T15:04:28.658Z,5.37
2023-04-27T15:07:53.651Z,4.63
2023-04-27T15:11:17.191Z,4.93
2023-04-27T15:14:40.804Z,4.40
2023-04-27T15:18:04.678Z,4.67
2023-04-27T15:21:28.433Z,5.10
2023-04-27T15:24:54.524Z,5.73
2023-04-27T15:28:18.568Z,6.10
2023-04-27T15:31:42.348Z,6.30
2023-04-27T15:35:06.864Z,4.90
2023-04-27T15:38:30.536Z,5.20
2023-04-27T15:41:56.404Z,5.30
2023-04-27T15:45:20.214Z,4.77
2023-04-27T15:48:43.910Z,4.47
2023-04-27T15:52:07.494Z,4.60
2023-04-27T15:55:31.509Z,4.50
2023-04-27T15:58:56.822Z,5.43
2023-04-27T16:02:20.779Z,5.03
2023-04-27T16:05:44.705Z,5.17
2023-04-27T16:09:10.533Z,4.77
2023-04-27T16:12:34.301Z,4.00
2023-04-27T16:15:59.404Z,4.13
2023-04-27T16:19:23.494Z,4.73
2023-04-27T16:22:46.987Z,5.63
2023-04-27T16:26:11.028Z,4.70
2023-04-27T16:29:34.725Z,4.87
2023-04-27T16:33:00.044Z,5.00
2023-04-27T16:36:23.998Z,6.33
2023-04-27T16:39:47.673Z,4.70
2023-04-27T16:43:11.420Z,5.00
2023-04-27T16:46:35.183Z,4.70
2023-04-27T16:50:00.342Z,4.87
2023-04-27T16:53:24.114Z,4.33
2023-04-27T16:56:47.981Z,4.70
2023-04-27T17:00:13.101Z,4.30
2023-04-27T17:03:37.064Z,4.83
2023-04-27T17:07:02.278Z,4.37
2023-04-27T17:10:26.131Z,4.00
2023-04-27T17:13:50.528Z,3.90
2023-04-27T17:17:14.264Z,4.37
2023-04-27T17:20:39.277Z,4.60
2023-04-27T17:24:09.598Z,4.83
2023-04-27T17:27:33.253Z,5.47
2023-04-27T17:30:56.927Z,4.60
2023-04-27T17:34:20.900Z,4.73
2023-04-27T17:37:44.720Z,4.03
2023-04-27T17:41:09.665Z,3.63
2023-04-27T17:44:34.064Z,5.20
2023-04-27T17:47:57.728Z,4.50
2023-04-27T17:51:21.404Z,4.80
2023-04-27T17:54:45.331Z,4.00
2023-04-27T17:58:11.133Z,4.40
2023-04-27T18:01:34.935Z,3.70
2023-04-27T18:04:59.482Z,5.27
2023-04-27T18:08:23.019Z,4.17
2023-04-27T18:11:46.727Z,3.87
2023-04-27T18:15:12.370Z,4.40
2023-04-27T18:18:35.876Z,4.20
2023-04-27T18:21:59.428Z,3.10
2023-04-27T18:25:22.933Z,4.00
2023-04-27T18:28:46.634Z,3.87
2023-04-27T18:32:11.686Z,3.77
2023-04-27T18:35:35.494Z,4.50
2023-04-27T18:38:59.595Z,3.60
2023-04-27T18:42:24.499Z,4.10
2023-04-27T18:45:48.109Z,3.80
2023-04-27T18:49:13.313Z,4.50
2023-04-27T18:52:37.200Z,3.67
2023-04-27T18:56:02.103Z,3.67
2023-04-27T18:59:25.887Z,3.60
2023-04-27T19:02:51.851Z,4.00
2023-04-27T19:06:18.789Z,4.63
2023-04-27T19:09:43.228Z,4.00
2023-04-27T19:13:06.836Z,4.30
2023-04-27T19:16:33.126Z,3.97
2023-04-27T19:19:56.789Z,4.67
2023-04-27T19:23:21.637Z,4.47
2023-04-27T19:26:46.604Z,3.80
2023-04-27T19:30:11.300Z,3.63
2023-04-27T19:33:34.881Z,6.73
2023-04-27T19:36:58.431Z,4.70
2023-04-27T19:40:23.536Z,4.53
2023-04-27T19:43:48.010Z,3.97
2023-04-27T19:47:11.922Z,4.20
2023-04-27T19:50:36.592Z,4.83
2023-04-27T19:54:00.221Z,4.10
2023-04-27T19:57:25.199Z,4.60
2023-04-27T20:00:48.951Z,3.90
2023-04-27T20:04:12.748Z,3.87
2023-04-27T20:07:37.286Z,4.80
2023-04-27T20:11:01.057Z,4.57
2023-04-27T20:14:28.971Z,5.17
2023-04-27T20:17:52.718Z,4.87
2023-04-27T20:21:16.362Z,4.63
2023-04-27T20:24:40.508Z,5.30
2023-04-27T20:28:04.053Z,5.30
2023-04-27T20:31:29.001Z,5.17
2023-04-27T20:34:53.075Z,5.13
2023-04-27T20:38:17.386Z,5.10
2023-04-27T20:41:41.937Z,5.13
2023-04-27T20:45:06.651Z,4.57
2023-04-27T20:48:31.802Z,5.30
2023-04-27T20:51:55.413Z,4.77
2023-04-27T20:55:19.265Z,6.50
2023-04-27T20:58:42.822Z,5.73
2023-04-27T21:02:06.685Z,6.30
2023-04-27T21:05:31.921Z,5.60
2023-04-27T21:08:55.596Z,5.40
2023-04-27T21:12:19.188Z,5.30
2023-04-27T21:15:42.688Z,4.87
2023-04-27T21:19:08.629Z,5.50
2023-04-27T21:22:33.570Z,6.10
2023-04-27T21:25:57.097Z,5.50
2023-04-27T21:29:20.962Z,5.30
2023-04-27T21:32:44.652Z,5.17
2023-04-27T21:36:08.621Z,6.10
2023-04-27T21:39:33.565Z,5.73
2023-04-27T21:42:57.113Z,5.47
2023-04-27T21:46:20.789Z,6.23
2023-04-27T21:49:44.486Z,5.87
2023-04-27T21:53:08.146Z,4.53
2023-04-27T21:56:34.109Z,7.43
2023-04-27T21:59:57.616Z,5.33
2023-04-27T22:03:21.548Z,5.10
2023-04-27T22:06:45.607Z,5.10
2023-04-27T22:10:09.945Z,5.40
2023-04-27T22:13:34.917Z,4.90
2023-04-27T22:17:00.677Z,5.70
2023-04-27T22:20:25.303Z,6.10
2023-04-27T22:23:49.219Z,5.20
2023-04-27T22:27:12.766Z,5.10
2023-04-27T22:30:37.780Z,4.80
2023-04-27T22:34:03.209Z,4.80
2023-04-27T22:37:28.610Z,5.20
2023-04-27T22:40:53.211Z,5.13
2023-04-27T22:44:17.574Z,5.43
2023-04-27T22:47:45.587Z,4.83
2023-04-27T22:51:09.849Z,4.57
2023-04-27T22:54:33.416Z,4.97
2023-04-27T22:57:56.988Z,5.13
2023-04-27T23:01:22.251Z,4.83
2023-04-27T23:04:47.252Z,4.53
2023-04-27T23:08:11.019Z,5.30
2023-04-27T23:11:35.029Z,4.30
2023-04-27T23:14:59.027Z,4.77
2023-04-27T23:18:22.864Z,6.03
2023-04-27T23:21:47.892Z,5.03
2023-04-27T23:25:12.023Z,4.27
2023-04-27T23:28:35.676Z,4.50
2023-04-27T23:32:02.867Z,4.97
2023-04-27T23:35:28.758Z,4.43
2023-04-27T23:38:53.708Z,4.90
2023-04-27T23:42:17.404Z,4.80
2023-04-27T23:45:41.151Z,5.00
2023-04-27T23:49:04.741Z,4.90
2023-04-27T23:52:28.296Z,4.50
2023-04-27T23:55:53.153Z,3.87
2023-04-27T23:59:17.095Z,5.77
